<?xml version="1.0" encoding="UTF-8" standalone="yes"?>
<gpx
 xmlns="http://www.topografix.com/GPX/1/1"
 creator="OziExplorer Version 3955k - http://www.oziexplorer.com"
 version="1.1"
 xmlns:xsi="http://www.w3.org/2001/XMLSchema-instance"
 xsi:schemaLocation="http://www.topografix.com/GPX/1/1 http://www.topografix.com/GPX/1/1/gpx.xsd">
<metadata>
 <time>2013-06-20T16:42:18Z</time>
 <bounds minlat="31.702045" minlon="34.791703" maxlat="31.835064" maxlon="35.005635"/>
</metadata>
<trk>
 <desc>6/20/2013 7:34:24 PM</desc>
<trkseg>
<trkpt lat="31.8350291" lon="34.9782347">
<time>2013-06-20T16:34:24.656Z</time>
</trkpt>
<trkpt lat="31.8324102" lon="34.9722175">
<time>2013-06-20T16:34:26.578Z</time>
</trkpt>
<trkpt lat="31.8272478" lon="34.9629482">
<time>2013-06-20T16:34:28.421Z</time>
</trkpt>
<trkpt lat="31.8259376" lon="34.9597338">
<time>2013-06-20T16:34:32.000Z</time>
</trkpt>
<trkpt lat="31.8252593" lon="34.9555689">
<time>2013-06-20T16:34:33.140Z</time>
</trkpt>
<trkpt lat="31.8256351" lon="34.9502461">
<time>2013-06-20T16:34:34.781Z</time>
</trkpt>
<trkpt lat="31.8261507" lon="34.9445517">
<time>2013-06-20T16:34:37.421Z</time>
</trkpt>
<trkpt lat="31.8252488" lon="34.9353133">
<time>2013-06-20T16:34:39.515Z</time>
</trkpt>
<trkpt lat="31.8247499" lon="34.9328808">
<time>2013-06-20T16:34:45.500Z</time>
</trkpt>
<trkpt lat="31.8227284" lon="34.9271526">
<time>2013-06-20T16:34:47.031Z</time>
</trkpt>
<trkpt lat="31.8200038" lon="34.9221281">
<time>2013-06-20T16:34:48.578Z</time>
</trkpt>
<trkpt lat="31.8177425" lon="34.9193712">
<time>2013-06-20T16:34:50.234Z</time>
</trkpt>
<trkpt lat="31.8154472" lon="34.9171096">
<time>2013-06-20T16:34:51.968Z</time>
</trkpt>
<trkpt lat="31.8134603" lon="34.9256954">
<time>2013-06-20T16:34:59.859Z</time>
</trkpt>
<trkpt lat="31.8133262" lon="34.9285007">
<time>2013-06-20T16:35:01.218Z</time>
</trkpt>
<trkpt lat="31.8112219" lon="34.9324255">
<time>2013-06-20T16:35:04.234Z</time>
</trkpt>
<trkpt lat="31.8104922" lon="34.9367173">
<time>2013-06-20T16:35:05.812Z</time>
</trkpt>
<trkpt lat="31.8098287" lon="34.9392353">
<time>2013-06-20T16:35:06.875Z</time>
</trkpt>
<trkpt lat="31.8096589" lon="34.9419993">
<time>2013-06-20T16:35:08.125Z</time>
</trkpt>
<trkpt lat="31.8086416" lon="34.9438583">
<time>2013-06-20T16:35:09.609Z</time>
</trkpt>
<trkpt lat="31.8024905" lon="34.9498559">
<time>2013-06-20T16:35:12.140Z</time>
</trkpt>
<trkpt lat="31.8014376" lon="34.9516322">
<time>2013-06-20T16:35:15.359Z</time>
</trkpt>
<trkpt lat="31.8010265" lon="34.9569537">
<time>2013-06-20T16:35:16.578Z</time>
</trkpt>
<trkpt lat="31.8012829" lon="34.9615310">
<time>2013-06-20T16:35:18.500Z</time>
</trkpt>
<trkpt lat="31.8005495" lon="34.9645024">
<time>2013-06-20T16:35:20.437Z</time>
</trkpt>
<trkpt lat="31.7994955" lon="34.9658661">
<time>2013-06-20T16:35:23.500Z</time>
</trkpt>
<trkpt lat="31.7979158" lon="34.9684684">
<time>2013-06-20T16:35:25.593Z</time>
</trkpt>
<trkpt lat="31.7972170" lon="34.9712746">
<time>2013-06-20T16:35:27.375Z</time>
</trkpt>
<trkpt lat="31.7968686" lon="34.9731313">
<time>2013-06-20T16:35:31.500Z</time>
</trkpt>
<trkpt lat="31.7940291" lon="34.9800255">
<time>2013-06-20T16:35:33.421Z</time>
</trkpt>
<trkpt lat="31.7939658" lon="34.9836547">
<time>2013-06-20T16:35:35.093Z</time>
</trkpt>
<trkpt lat="31.7923855" lon="34.9861741">
<time>2013-06-20T16:35:36.687Z</time>
</trkpt>
<trkpt lat="31.7903461" lon="34.9881171">
<time>2013-06-20T16:35:38.593Z</time>
</trkpt>
<trkpt lat="31.7892598" lon="34.9910887">
<time>2013-06-20T16:35:40.375Z</time>
</trkpt>
<trkpt lat="31.7871905" lon="34.9959595">
<time>2013-06-20T16:35:42.484Z</time>
</trkpt>
<trkpt lat="31.7870520" lon="34.9972381">
<time>2013-06-20T16:35:44.531Z</time>
</trkpt>
<trkpt lat="31.7869130" lon="34.9982693">
<time>2013-06-20T16:35:47.484Z</time>
</trkpt>
<trkpt lat="31.7859640" lon="34.9994261">
<time>2013-06-20T16:35:49.218Z</time>
</trkpt>
<trkpt lat="31.7850484" lon="34.9995518">
<time>2013-06-20T16:35:51.562Z</time>
</trkpt>
<trkpt lat="31.7835331" lon="34.9992665">
<time>2013-06-20T16:35:53.109Z</time>
</trkpt>
<trkpt lat="31.7815625" lon="35.0004254">
<time>2013-06-20T16:35:54.906Z</time>
</trkpt>
<trkpt lat="31.7808264" lon="35.0024063">
<time>2013-06-20T16:35:56.156Z</time>
</trkpt>
<trkpt lat="31.7777981" lon="35.0030726">
<time>2013-06-20T16:35:58.281Z</time>
</trkpt>
<trkpt lat="31.7751607" lon="35.0056347">
<time>2013-06-20T16:36:01.437Z</time>
</trkpt>
<trkpt lat="31.7733954" lon="35.0034532">
<time>2013-06-20T16:36:05.187Z</time>
</trkpt>
<trkpt lat="31.7694068" lon="34.9990503">
<time>2013-06-20T16:36:07.140Z</time>
</trkpt>
<trkpt lat="31.7627059" lon="34.9948189">
<time>2013-06-20T16:36:09.796Z</time>
</trkpt>
<trkpt lat="31.7612576" lon="34.9926784">
<time>2013-06-20T16:36:10.859Z</time>
</trkpt>
<trkpt lat="31.7606210" lon="34.9913607">
<time>2013-06-20T16:36:14.109Z</time>
</trkpt>
<trkpt lat="31.7587155" lon="34.9896336">
<time>2013-06-20T16:36:16.000Z</time>
</trkpt>
<trkpt lat="31.7583967" lon="34.9887274">
<time>2013-06-20T16:36:17.218Z</time>
</trkpt>
<trkpt lat="31.7581822" lon="34.9871202">
<time>2013-06-20T16:36:18.203Z</time>
</trkpt>
<trkpt lat="31.7563109" lon="34.9848985">
<time>2013-06-20T16:36:19.687Z</time>
</trkpt>
<trkpt lat="31.7554627" lon="34.9834577">
<time>2013-06-20T16:36:24.500Z</time>
</trkpt>
<trkpt lat="31.7544003" lon="34.9806159">
<time>2013-06-20T16:36:26.359Z</time>
</trkpt>
<trkpt lat="31.7538339" lon="34.9792569">
<time>2013-06-20T16:36:27.656Z</time>
</trkpt>
<trkpt lat="31.7520705" lon="34.9782306">
<time>2013-06-20T16:36:29.562Z</time>
</trkpt>
<trkpt lat="31.7504468" lon="34.9765858">
<time>2013-06-20T16:36:31.046Z</time>
</trkpt>
<trkpt lat="31.7497061" lon="34.9761342">
<time>2013-06-20T16:36:33.203Z</time>
</trkpt>
<trkpt lat="31.7489646" lon="34.9752291">
<time>2013-06-20T16:36:34.890Z</time>
</trkpt>
<trkpt lat="31.7460371" lon="34.9734640">
<time>2013-06-20T16:36:37.156Z</time>
</trkpt>
<trkpt lat="31.7449801" lon="34.9733429">
<time>2013-06-20T16:38:16.312Z</time>
</trkpt>
<trkpt lat="31.7419156" lon="34.9734742">
<time>2013-06-20T16:38:18.015Z</time>
</trkpt>
<trkpt lat="31.7410699" lon="34.9733526">
<time>2013-06-20T16:38:20.531Z</time>
</trkpt>
<trkpt lat="31.7386691" lon="34.9707208">
<time>2013-06-20T16:38:24.265Z</time>
</trkpt>
<trkpt lat="31.7353146" lon="34.9668964">
<time>2013-06-20T16:38:26.171Z</time>
</trkpt>
<trkpt lat="31.7344329" lon="34.9664041">
<time>2013-06-20T16:38:27.437Z</time>
</trkpt>
<trkpt lat="31.7310526" lon="34.9670721">
<time>2013-06-20T16:38:29.015Z</time>
</trkpt>
<trkpt lat="31.7301714" lon="34.9668271">
<time>2013-06-20T16:38:31.078Z</time>
</trkpt>
<trkpt lat="31.7282683" lon="34.9664198">
<time>2013-06-20T16:38:35.390Z</time>
</trkpt>
<trkpt lat="31.7252014" lon="34.9653974">
<time>2013-06-20T16:38:37.406Z</time>
</trkpt>
<trkpt lat="31.7240388" lon="34.9653592">
<time>2013-06-20T16:38:38.718Z</time>
</trkpt>
<trkpt lat="31.7226636" lon="34.9647034">
<time>2013-06-20T16:38:40.750Z</time>
</trkpt>
<trkpt lat="31.7205143" lon="34.9645029">
<time>2013-06-20T16:38:42.484Z</time>
</trkpt>
<trkpt lat="31.7169523" lon="34.9625754">
<time>2013-06-20T16:38:46.015Z</time>
</trkpt>
<trkpt lat="31.7161048" lon="34.9615887">
<time>2013-06-20T16:38:47.296Z</time>
</trkpt>
<trkpt lat="31.7120501" lon="34.9599099">
<time>2013-06-20T16:38:49.375Z</time>
</trkpt>
<trkpt lat="31.7112736" lon="34.9592115">
<time>2013-06-20T16:38:51.609Z</time>
</trkpt>
<trkpt lat="31.7097172" lon="34.9562490">
<time>2013-06-20T16:38:56.078Z</time>
</trkpt>
<trkpt lat="31.7092552" lon="34.9543549">
<time>2013-06-20T16:38:57.000Z</time>
</trkpt>
<trkpt lat="31.7089342" lon="34.9525841">
<time>2013-06-20T16:38:58.140Z</time>
</trkpt>
<trkpt lat="31.7093178" lon="34.9508114">
<time>2013-06-20T16:38:59.500Z</time>
</trkpt>
<trkpt lat="31.7088227" lon="34.9499475">
<time>2013-06-20T16:39:01.703Z</time>
</trkpt>
<trkpt lat="31.7075885" lon="34.9493740">
<time>2013-06-20T16:39:03.859Z</time>
</trkpt>
<trkpt lat="31.7060709" lon="34.9481010">
<time>2013-06-20T16:39:05.796Z</time>
</trkpt>
<trkpt lat="31.7053612" lon="34.9457957">
<time>2013-06-20T16:39:06.718Z</time>
</trkpt>
<trkpt lat="31.7042315" lon="34.9447276">
<time>2013-06-20T16:39:09.343Z</time>
</trkpt>
<trkpt lat="31.7020446" lon="34.9434565">
<time>2013-06-20T16:39:11.609Z</time>
</trkpt>
<trkpt lat="31.7024621" lon="34.9411894">
<time>2013-06-20T16:39:12.640Z</time>
</trkpt>
<trkpt lat="31.7041460" lon="34.9381358">
<time>2013-06-20T16:39:15.765Z</time>
</trkpt>
<trkpt lat="31.7041328" lon="34.9324915">
<time>2013-06-20T16:39:19.968Z</time>
</trkpt>
<trkpt lat="31.7056996" lon="34.9247412">
<time>2013-06-20T16:39:21.843Z</time>
</trkpt>
<trkpt lat="31.7078767" lon="34.9218917">
<time>2013-06-20T16:39:23.562Z</time>
</trkpt>
<trkpt lat="31.7088972" lon="34.9214354">
<time>2013-06-20T16:39:25.968Z</time>
</trkpt>
<trkpt lat="31.7111161" lon="34.9212638">
<time>2013-06-20T16:39:26.687Z</time>
</trkpt>
<trkpt lat="31.7144582" lon="34.9194407">
<time>2013-06-20T16:39:29.359Z</time>
</trkpt>
<trkpt lat="31.7182560" lon="34.9167506">
<time>2013-06-20T16:39:33.468Z</time>
</trkpt>
<trkpt lat="31.7188895" lon="34.9165014">
<time>2013-06-20T16:39:34.265Z</time>
</trkpt>
<trkpt lat="31.7219895" lon="34.9165331">
<time>2013-06-20T16:39:35.890Z</time>
</trkpt>
<trkpt lat="31.7238892" lon="34.9154970">
<time>2013-06-20T16:39:37.765Z</time>
</trkpt>
<trkpt lat="31.7246257" lon="34.9141760">
<time>2013-06-20T16:39:38.640Z</time>
</trkpt>
<trkpt lat="31.7245748" lon="34.9079536">
<time>2013-06-20T16:39:40.546Z</time>
</trkpt>
<trkpt lat="31.7247829" lon="34.9066754">
<time>2013-06-20T16:39:41.765Z</time>
</trkpt>
<trkpt lat="31.7281161" lon="34.9015134">
<time>2013-06-20T16:39:43.343Z</time>
</trkpt>
<trkpt lat="31.7295903" lon="34.8994893">
<time>2013-06-20T16:39:45.281Z</time>
</trkpt>
<trkpt lat="31.7393479" lon="34.8861859">
<time>2013-06-20T16:39:49.703Z</time>
</trkpt>
<trkpt lat="31.7425478" lon="34.8840729">
<time>2013-06-20T16:39:50.812Z</time>
</trkpt>
<trkpt lat="31.7465966" lon="34.8832346">
<time>2013-06-20T16:39:52.515Z</time>
</trkpt>
<trkpt lat="31.7474409" lon="34.8828195">
<time>2013-06-20T16:39:54.078Z</time>
</trkpt>
<trkpt lat="31.7482475" lon="34.8815389">
<time>2013-06-20T16:39:55.187Z</time>
</trkpt>
<trkpt lat="31.7489824" lon="34.8797639">
<time>2013-06-20T16:39:57.359Z</time>
</trkpt>
<trkpt lat="31.7484478" lon="34.8775399">
<time>2013-06-20T16:39:58.437Z</time>
</trkpt>
<trkpt lat="31.7470673" lon="34.8751540">
<time>2013-06-20T16:39:59.968Z</time>
</trkpt>
<trkpt lat="31.7458290" lon="34.8732624">
<time>2013-06-20T16:40:01.453Z</time>
</trkpt>
<trkpt lat="31.7433217" lon="34.8710456">
<time>2013-06-20T16:40:03.078Z</time>
</trkpt>
<trkpt lat="31.7428546" lon="34.8678323">
<time>2013-06-20T16:40:04.296Z</time>
</trkpt>
<trkpt lat="31.7444617" lon="34.8632101">
<time>2013-06-20T16:40:05.406Z</time>
</trkpt>
<trkpt lat="31.7450154" lon="34.8598282">
<time>2013-06-20T16:40:06.500Z</time>
</trkpt>
<trkpt lat="31.7436306" lon="34.8560825">
<time>2013-06-20T16:40:09.609Z</time>
</trkpt>
<trkpt lat="31.7414717" lon="34.8527109">
<time>2013-06-20T16:40:10.671Z</time>
</trkpt>
<trkpt lat="31.7413621" lon="34.8513924">
<time>2013-06-20T16:40:11.859Z</time>
</trkpt>
<trkpt lat="31.7424787" lon="34.8478435">
<time>2013-06-20T16:40:12.921Z</time>
</trkpt>
<trkpt lat="31.7453900" lon="34.8437105">
<time>2013-06-20T16:40:15.015Z</time>
</trkpt>
<trkpt lat="31.7454482" lon="34.8397121">
<time>2013-06-20T16:40:16.031Z</time>
</trkpt>
<trkpt lat="31.7459591" lon="34.8341044">
<time>2013-06-20T16:40:18.171Z</time>
</trkpt>
<trkpt lat="31.7452681" lon="34.8272238">
<time>2013-06-20T16:40:20.125Z</time>
</trkpt>
<trkpt lat="31.7455953" lon="34.8194322">
<time>2013-06-20T16:40:22.671Z</time>
</trkpt>
<trkpt lat="31.7501253" lon="34.8044505">
<time>2013-06-20T16:40:24.859Z</time>
</trkpt>
<trkpt lat="31.7557436" lon="34.7991499">
<time>2013-06-20T16:40:27.828Z</time>
</trkpt>
<trkpt lat="31.7570036" lon="34.7967534">
<time>2013-06-20T16:40:29.031Z</time>
</trkpt>
<trkpt lat="31.7617066" lon="34.7917033">
<time>2013-06-20T16:40:32.406Z</time>
</trkpt>
<trkpt lat="31.7643264" lon="34.7954845">
<time>2013-06-20T16:40:34.875Z</time>
</trkpt>
<trkpt lat="31.7720404" lon="34.8057168">
<time>2013-06-20T16:40:38.281Z</time>
</trkpt>
<trkpt lat="31.7788311" lon="34.8138930">
<time>2013-06-20T16:40:40.687Z</time>
</trkpt>
<trkpt lat="31.7873733" lon="34.8192179">
<time>2013-06-20T16:40:44.484Z</time>
</trkpt>
<trkpt lat="31.7914084" lon="34.8252219">
<time>2013-06-20T16:40:46.000Z</time>
</trkpt>
<trkpt lat="31.7945263" lon="34.8308591">
<time>2013-06-20T16:40:47.656Z</time>
</trkpt>
<trkpt lat="31.8034671" lon="34.8400205">
<time>2013-06-20T16:40:51.578Z</time>
</trkpt>
<trkpt lat="31.8044935" lon="34.8415837">
<time>2013-06-20T16:40:52.828Z</time>
</trkpt>
<trkpt lat="31.8086132" lon="34.8526216">
<time>2013-06-20T16:40:55.421Z</time>
</trkpt>
<trkpt lat="31.8101606" lon="34.8637111">
<time>2013-06-20T16:40:59.750Z</time>
</trkpt>
<trkpt lat="31.8096807" lon="34.8683325">
<time>2013-06-20T16:41:01.156Z</time>
</trkpt>
<trkpt lat="31.8087745" lon="34.8717180">
<time>2013-06-20T16:41:02.671Z</time>
</trkpt>
<trkpt lat="31.8091080" lon="34.8775738">
<time>2013-06-20T16:41:04.343Z</time>
</trkpt>
<trkpt lat="31.8101392" lon="34.8810349">
<time>2013-06-20T16:41:06.390Z</time>
</trkpt>
<trkpt lat="31.8106864" lon="34.8879213">
<time>2013-06-20T16:41:09.859Z</time>
</trkpt>
<trkpt lat="31.8102137" lon="34.8955536">
<time>2013-06-20T16:41:11.171Z</time>
</trkpt>
<trkpt lat="31.8112858" lon="34.9014072">
<time>2013-06-20T16:41:12.875Z</time>
</trkpt>
<trkpt lat="31.8124303" lon="34.9080856">
<time>2013-06-20T16:41:14.578Z</time>
</trkpt>
<trkpt lat="31.8127211" lon="34.9116320">
<time>2013-06-20T16:41:16.156Z</time>
</trkpt>
<trkpt lat="31.8154823" lon="34.9170270">
<time>2013-06-20T16:41:19.593Z</time>
</trkpt>
<trkpt lat="31.8201098" lon="34.9222515">
<time>2013-06-20T16:41:21.796Z</time>
</trkpt>
<trkpt lat="31.8242538" lon="34.9316447">
<time>2013-06-20T16:41:23.156Z</time>
</trkpt>
<trkpt lat="31.8258547" lon="34.9383644">
<time>2013-06-20T16:41:26.250Z</time>
</trkpt>
<trkpt lat="31.8260112" lon="34.9451709">
<time>2013-06-20T16:41:29.218Z</time>
</trkpt>
<trkpt lat="31.8252240" lon="34.9555278">
<time>2013-06-20T16:41:30.531Z</time>
</trkpt>
<trkpt lat="31.8261157" lon="34.9606409">
<time>2013-06-20T16:41:32.500Z</time>
</trkpt>
<trkpt lat="31.8287324" lon="34.9653371">
<time>2013-06-20T16:41:34.421Z</time>
</trkpt>
<trkpt lat="31.8350644" lon="34.9782346">
<time>2013-06-20T16:41:37.796Z</time>
</trkpt>
</trkseg>
</trk>
</gpx>
